createdAt,value
2022-10-30T07:36:51.798Z,4.07
2022-10-30T07:40:01.361Z,4.67
2022-10-30T07:43:01.121Z,4.97
2022-10-30T07:45:58.037Z,4.50
2022-10-30T07:49:07.278Z,3.80
2022-10-30T07:52:02.161Z,3.70
2022-10-30T07:54:39.073Z,3.53
2022-10-30T07:57:38.884Z,3.70
2022-10-30T08:00:35.620Z,4.17
2022-10-30T08:03:22.032Z,3.90
2022-10-30T08:06:05.953Z,3.65
2022-10-30T08:08:48.204Z,3.43
2022-10-30T08:11:35.144Z,3.73
2022-10-30T08:14:13.975Z,3.90
2022-10-30T08:16:50.843Z,3.57
2022-10-30T08:19:28.522Z,3.67
2022-10-30T08:22:05.572Z,3.55
2022-10-30T08:24:49.832Z,3.92
2022-10-30T08:27:27.411Z,3.38
2022-10-30T08:30:05.043Z,2.92
2022-10-30T08:32:42.331Z,2.90
2022-10-30T08:35:38.635Z,3.47
2022-10-30T08:38:15.835Z,3.05
2022-10-30T08:41:02.956Z,3.17
2022-10-30T08:43:44.438Z,3.20
2022-10-30T08:46:21.981Z,3.17
2022-10-30T08:48:59.060Z,3.13
2022-10-30T08:51:37.273Z,2.45
2022-10-30T08:54:14.964Z,3.50
2022-10-30T08:56:54.762Z,2.50
2022-10-30T08:59:39.274Z,3.13
2022-10-30T09:02:24.461Z,2.85
2022-10-30T09:05:34.658Z,2.92
2022-10-30T09:08:30.287Z,2.60
2022-10-30T09:11:29.660Z,2.75
2022-10-30T09:14:10.954Z,2.78
2022-10-30T09:16:50.681Z,2.55
2022-10-30T09:19:31.604Z,2.60
2022-10-30T09:22:09.256Z,2.78
2022-10-30T09:24:51.289Z,2.33
2022-10-30T09:27:51.599Z,2.22
2022-10-30T09:30:32.816Z,3.03
2022-10-30T09:33:12.177Z,2.40
2022-10-30T09:36:16.730Z,2.13
2022-10-30T09:39:00.962Z,2.35
2022-10-30T09:42:12.496Z,2.10
2022-10-30T09:45:27.951Z,2.03
2022-10-30T09:48:30.849Z,2.03
2022-10-30T09:51:34.584Z,2.45
2022-10-30T09:54:28.637Z,2.20
2022-10-30T09:57:14.878Z,2.08
2022-10-30T10:00:07.002Z,2.40
2022-10-30T10:03:07.303Z,2.10
2022-10-30T10:06:02.577Z,3.22
2022-10-30T10:09:05.952Z,1.90
2022-10-30T10:12:09.882Z,2.35
2022-10-30T10:14:50.192Z,2.40
2022-10-30T10:17:34.955Z,2.00
2022-10-30T10:20:25.918Z,2.65
2022-10-30T10:23:17.910Z,2.22
2022-10-30T10:25:57.989Z,2.15
2022-10-30T10:28:59.907Z,2.25
2022-10-30T10:31:47.087Z,2.10
2022-10-30T10:35:11.340Z,2.08
2022-10-30T10:37:55.974Z,1.90
2022-10-30T10:40:52.658Z,1.98
2022-10-30T10:43:47.708Z,2.08
2022-10-30T10:46:41.361Z,2.40
2022-10-30T10:49:40.601Z,2.25
2022-10-30T10:52:23.236Z,2.33
2022-10-30T10:55:04.268Z,2.10
2022-10-30T10:57:47.017Z,2.40
2022-10-30T11:00:28.535Z,2.08
2022-10-30T11:03:18.072Z,2.42
2022-10-30T11:06:00.105Z,3.15
2022-10-30T11:08:38.205Z,2.60
2022-10-30T11:11:15.395Z,2.35
2022-10-30T11:13:55.956Z,2.75
2022-10-30T11:16:41.231Z,2.95
2022-10-30T11:19:18.375Z,2.80
2022-10-30T11:21:58.507Z,2.67
2022-10-30T11:24:37.358Z,3.47
2022-10-30T11:27:28.708Z,3.67
2022-10-30T11:30:21.303Z,3.20
2022-10-30T11:32:59.350Z,2.95
2022-10-30T11:35:46.453Z,3.63
2022-10-30T11:38:24.661Z,3.03
2022-10-30T11:41:04.246Z,3.58
2022-10-30T11:43:42.251Z,3.35
2022-10-30T11:46:26.592Z,3.00
2022-10-30T11:49:03.534Z,2.70
2022-10-30T11:51:44.723Z,2.83
2022-10-30T11:54:25.009Z,3.17
2022-10-30T11:57:03.152Z,3.15
2022-10-30T11:59:40.134Z,3.45
2022-10-30T12:02:30.347Z,2.70
2022-10-30T12:05:34.872Z,3.47
2022-10-30T12:08:25.318Z,2.85
2022-10-30T12:11:06.082Z,3.45
2022-10-30T12:13:44.511Z,3.28
2022-10-30T12:16:23.841Z,2.88
2022-10-30T12:19:07.569Z,3.55
2022-10-30T12:24:32.362Z,3.22
2022-10-30T12:27:21.479Z,3.65
2022-10-30T12:30:12.305Z,3.67
2022-10-30T12:32:55.852Z,3.45
2022-10-30T12:35:47.642Z,3.60
2022-10-30T12:38:32.582Z,3.38
2022-10-30T12:41:20.289Z,4.10
2022-10-30T12:44:09.203Z,3.85
2022-10-30T12:46:55.211Z,3.78
2022-10-30T12:49:43.003Z,4.28
2022-10-30T12:52:29.594Z,4.05
2022-10-30T12:55:16.652Z,4.10
2022-10-30T12:58:06.065Z,4.25
2022-10-30T13:00:58.366Z,4.60
2022-10-30T13:03:42.523Z,4.53
2022-10-30T13:06:25.750Z,4.45
2022-10-30T13:09:16.161Z,4.22
2022-10-30T13:11:59.192Z,4.25
2022-10-30T13:14:43.652Z,4.20
2022-10-30T13:17:21.032Z,4.15
2022-10-30T13:19:59.204Z,4.88
2022-10-30T13:22:44.830Z,4.05
2022-10-30T13:25:37.264Z,4.15
2022-10-30T13:28:26.384Z,4.37
2022-10-30T13:31:15.720Z,4.22
2022-10-30T13:34:04.661Z,3.92
2022-10-30T13:36:50.588Z,3.95
2022-10-30T13:39:37.871Z,4.05
2022-10-30T13:42:46.477Z,4.55
2022-10-30T13:46:14.837Z,4.18
2022-10-30T13:49:13.045Z,4.40
2022-10-30T13:51:59.359Z,4.93
2022-10-30T13:54:46.196Z,9.13
2022-10-30T13:57:33.434Z,7.05
2022-10-30T14:00:24.215Z,6.75
2022-10-30T14:03:27.856Z,8.20
2022-10-30T14:09:06.025Z,5.75
2022-10-30T14:11:47.931Z,7.10
2022-10-30T14:14:37.005Z,6.20
2022-10-30T14:17:20.354Z,6.10
2022-10-30T14:20:31.207Z,6.28
2022-10-30T14:23:22.597Z,5.35
2022-10-30T14:26:23.682Z,4.85
2022-10-30T14:29:23.548Z,5.38
2022-10-30T14:32:28.315Z,5.97
2022-10-30T14:35:43.537Z,6.05
2022-10-30T14:38:40.756Z,6.28
2022-10-30T14:41:48.660Z,5.95
2022-10-30T14:45:09.693Z,7.40
2022-10-30T14:48:09.029Z,6.95
2022-10-30T14:51:10.954Z,6.50
2022-10-30T14:54:08.328Z,7.85
2022-10-30T14:56:58.323Z,8.27
2022-10-30T14:59:45.086Z,7.35
2022-10-30T15:02:54.403Z,6.93
2022-10-30T15:05:54.795Z,7.07
2022-10-30T15:09:11.786Z,6.57
2022-10-30T15:12:30.966Z,6.20
2022-10-30T15:15:25.659Z,6.05
2022-10-30T15:18:15.099Z,6.65
2022-10-30T15:20:58.757Z,6.70
2022-10-30T15:23:39.494Z,6.72
2022-10-30T15:26:31.313Z,7.03
2022-10-30T15:29:20.042Z,8.32
2022-10-30T15:32:06.032Z,8.80
2022-10-30T15:34:56.814Z,8.07
2022-10-30T15:37:40.825Z,7.55
2022-10-30T15:40:25.463Z,7.55
2022-10-30T15:43:05.604Z,8.40
2022-10-30T15:45:48.483Z,9.82
2022-10-30T15:48:31.292Z,8.13
2022-10-30T15:51:22.322Z,8.73
2022-10-30T15:54:07.103Z,10.02
2022-10-30T15:57:21.524Z,9.82
2022-10-30T15:59:59.864Z,9.38
2022-10-30T16:03:09.114Z,9.90
2022-10-30T16:05:47.153Z,10.77
2022-10-30T16:08:28.346Z,10.55
2022-10-30T16:14:08.949Z,10.23
2022-10-30T16:16:49.280Z,11.07
2022-10-30T16:19:30.721Z,10.82
2022-10-30T16:22:08.321Z,9.60
2022-10-30T16:24:46.041Z,11.00
2022-10-30T16:27:28.464Z,9.70
2022-10-30T16:30:07.046Z,10.73
2022-10-30T16:32:46.538Z,10.25
2022-10-30T16:35:27.809Z,10.43
2022-10-30T16:38:05.780Z,9.35
2022-10-30T16:40:44.249Z,10.35
2022-10-30T16:43:33.638Z,9.93
2022-10-30T16:46:43.268Z,10.77
2022-10-30T16:49:24.060Z,11.68
2022-10-30T16:52:05.441Z,11.50
2022-10-30T16:54:50.021Z,11.43
2022-10-30T16:57:32.820Z,9.77
2022-10-30T17:00:27.000Z,9.93
2022-10-30T17:03:13.785Z,11.10
2022-10-30T17:06:03.279Z,11.55
2022-10-30T17:08:47.181Z,14.00
2022-10-30T17:11:43.441Z,15.40
2022-10-30T17:14:23.530Z,15.43
2022-10-30T17:17:03.819Z,16.27
2022-10-30T17:19:51.671Z,16.95
2022-10-30T17:22:30.209Z,16.52
2022-10-30T17:25:21.470Z,17.77
2022-10-30T17:27:58.675Z,19.25
2022-10-30T17:30:45.970Z,18.55
2022-10-30T17:33:38.533Z,19.67
2022-10-30T17:36:17.547Z,19.35
2022-10-30T17:38:54.730Z,18.83
2022-10-30T17:41:33.515Z,19.45
2022-10-30T17:44:18.809Z,19.73
2022-10-30T17:46:56.254Z,19.23
2022-10-30T17:49:37.049Z,19.63
2022-10-30T17:52:17.450Z,21.90
2022-10-30T17:54:54.442Z,23.50
2022-10-30T17:57:32.100Z,23.17
2022-10-30T18:00:11.525Z,20.77
2022-10-30T18:02:49.680Z,24.60
2022-10-30T18:05:33.271Z,25.10
2022-10-30T18:08:10.858Z,26.90
2022-10-30T18:10:51.460Z,21.63
2022-10-30T18:13:29.078Z,25.83
2022-10-30T18:16:08.451Z,22.97
2022-10-30T18:18:46.867Z,24.67
2022-10-30T18:21:30.357Z,21.40
2022-10-30T18:26:54.592Z,18.73
2022-10-30T18:29:32.090Z,18.33
2022-10-30T18:32:12.410Z,19.33
2022-10-30T18:34:50.087Z,17.47
2022-10-30T18:37:30.190Z,17.53
2022-10-30T18:40:09.277Z,18.00
2022-10-30T18:42:47.263Z,18.60
2022-10-30T18:45:29.281Z,16.87
2022-10-30T18:48:07.970Z,17.20
2022-10-30T18:50:46.674Z,16.40
2022-10-30T18:53:32.741Z,15.67
2022-10-30T18:56:15.385Z,14.53
2022-10-30T18:58:56.452Z,15.40
2022-10-30T19:01:42.480Z,14.23
2022-10-30T19:04:22.345Z,14.93
2022-10-30T19:07:02.727Z,14.53
2022-10-30T19:09:43.707Z,14.27
2022-10-30T19:12:21.693Z,15.03
2022-10-30T19:15:00.372Z,14.27
2022-10-30T19:17:39.376Z,13.07
2022-10-30T19:20:20.204Z,13.60
2022-10-30T19:22:58.632Z,13.00
2022-10-30T19:25:45.089Z,13.30
2022-10-30T19:28:24.508Z,14.53
2022-10-30T19:31:03.730Z,14.13
2022-10-30T19:33:44.654Z,14.30
2022-10-30T19:36:37.068Z,13.37
2022-10-30T19:39:17.806Z,14.07
2022-10-30T19:41:59.029Z,12.67
2022-10-30T19:44:37.927Z,12.97
2022-10-30T19:47:15.643Z,13.53
2022-10-30T19:49:53.893Z,13.07
2022-10-30T19:52:32.052Z,15.00
2022-10-30T19:55:11.515Z,14.00
2022-10-30T19:57:52.828Z,15.33
2022-10-30T20:00:33.961Z,14.80
2022-10-30T20:03:11.754Z,16.10
2022-10-30T20:05:51.942Z,15.03
2022-10-30T20:08:29.916Z,15.80
2022-10-30T20:11:08.213Z,16.33
2022-10-30T20:13:50.686Z,15.17
2022-10-30T20:16:34.847Z,16.10
2022-10-30T20:19:35.682Z,16.00
2022-10-30T20:22:15.263Z,14.20
2022-10-30T20:24:53.390Z,14.67
2022-10-30T20:27:31.735Z,14.33
2022-10-30T20:30:21.244Z,14.77
2022-10-30T20:33:00.027Z,15.47
2022-10-30T20:35:40.893Z,14.50
